Winston, Montana
Current Conditions -  °F | °C
As of 12:53 AM on Wednesday 22 Oct 2014 (Local Time) from KHLN Reporting Station
Clear Clear  
Wind Chill: 42°   Ceiling: Unl
Heat Index: 45°   Visibility: 10mi
Dew Point: 33°   Wind: 6mph
Humidity: 63%   Direction: 280°W
Pressure: 30"   Gusts: NA
Location:  46.47°N, 111.68°W
Report Text: KHLN 220653Z AUTO 28005KT 10SM CLR 07/01 A3000 RMK AO2 SLP179 T00720006 401610067 TSNO
Loading
Personal Weather Stations






























Interactive Weather Map
Tropical Storm Tracking
New forecast layout! Learn more

10-Day Weather Forecast

Advertisements
Track Severe Weather on mobile